Time;durP1;ratioP1;P1;durP2;ratioP2;P2;SDS_P1;SDS_P2;PMS_P1;PMS_P2;Temp;Humidity;BMP_temperature;BMP_pressure;BME280_temperature;BME280_humidity;BME280_pressure;Samples;Min_cycle;Max_cycle;Signal;HPM_P1;HPM_P2
2023/04/15 00:00:09;;;;;;;6.95;2.70;;;;;;;;;;5020594;28;20053;-71
2023/04/15 00:02:36;;;;;;;5.32;2.20;;;;;;;;;;5031511;28;20061;-69
2023/04/15 00:05:03;;;;;;;4.63;2.10;;;;;;;;;;5012699;28;20072;-71
2023/04/15 00:07:30;;;;;;;8.07;2.28;;;;;;;;;;5025003;28;20049;-70
2023/04/15 00:09:57;;;;;;;6.53;2.42;;;;;;;;;;5023560;28;20075;-71
2023/04/15 00:12:23;;;;;;;5.18;2.25;;;;;;;;;;5021692;28;20139;-70
2023/04/15 00:14:52;;;;;;;4.85;2.20;;;;;;;;;;5051907;28;20049;-70
2023/04/15 00:17:19;;;;;;;5.13;2.30;;;;;;;;;;5045623;28;20053;-70
2023/04/15 00:19:45;;;;;;;4.68;2.45;;;;;;;;;;5031428;28;20144;-71
2023/04/15 00:22:12;;;;;;;5.78;2.30;;;;;;;;;;5019982;28;20057;-70
2023/04/15 00:24:39;;;;;;;3.97;2.05;;;;;;;;;;5014939;28;20048;-71
2023/04/15 00:27:09;;;;;;;5.80;2.58;;;;;;;;;;5018985;28;20133;-71
2023/04/15 00:29:36;;;;;;;4.70;1.95;;;;;;;;;;5013815;28;20053;-70
2023/04/15 00:32:04;;;;;;;5.88;2.10;;;;;;;;;;5020706;28;20072;-69
2023/04/15 00:34:30;;;;;;;4.22;2.17;;;;;;;;;;5052725;28;20080;-71
2023/04/15 00:36:57;;;;;;;4.82;2.22;;;;;;;;;;5013671;28;20048;-69
2023/04/15 00:39:23;;;;;;;4.22;1.88;;;;;;;;;;5047251;28;20057;-71
2023/04/15 00:41:50;;;;;;;3.60;1.88;;;;;;;;;;5034998;28;20057;-71
2023/04/15 00:44:17;;;;;;;6.85;2.40;;;;;;;;;;5037445;28;20060;-71
2023/04/15 00:46:45;;;;;;;4.63;2.30;;;;;;;;;;5030789;28;20057;-69
2023/04/15 00:49:13;;;;;;;5.38;2.30;;;;;;;;;;5051067;28;20071;-70
2023/04/15 00:51:40;;;;;;;4.93;2.35;;;;;;;;;;5045015;28;20076;-70
2023/04/15 00:54:07;;;;;;;5.30;2.28;;;;;;;;;;5037775;28;20114;-70
2023/04/15 00:56:35;;;;;;;4.80;2.20;;;;;;;;;;5029839;28;20076;-71
2023/04/15 00:59:02;;;;;;;4.60;2.38;;;;;;;;;;5036237;28;20107;-69
2023/04/15 01:01:28;;;;;;;7.57;2.45;;;;;;;;;;5018003;28;20049;-69
2023/04/15 01:03:56;;;;;;;8.50;2.60;;;;;;;;;;5016916;28;20053;-69
2023/04/15 01:06:26;;;;;;;8.15;2.47;;;;;;;;;;5030200;28;20066;-71
2023/04/15 01:08:52;;;;;;;5.05;2.58;;;;;;;;;;5042569;28;20063;-70
2023/04/15 01:11:19;;;;;;;6.32;2.47;;;;;;;;;;5016160;28;20057;-70
2023/04/15 01:13:47;;;;;;;6.03;2.38;;;;;;;;;;5028357;28;20140;-70
2023/04/15 01:16:14;;;;;;;6.75;2.20;;;;;;;;;;5041466;28;20057;-70
2023/04/15 01:18:41;;;;;;;4.20;2.20;;;;;;;;;;5014393;28;20085;-71
2023/04/15 01:21:08;;;;;;;6.57;2.60;;;;;;;;;;5032622;28;20053;-70
2023/04/15 01:23:37;;;;;;;8.25;2.22;;;;;;;;;;5051010;28;20063;-71
2023/04/15 01:26:07;;;;;;;5.43;2.20;;;;;;;;;;5051106;28;20053;-70
2023/04/15 01:28:34;;;;;;;4.70;2.10;;;;;;;;;;5050463;28;20053;-69
2023/04/15 01:31:07;;;;;;;4.68;2.47;;;;;;;;;;5053694;28;20053;-70
2023/04/15 01:33:35;;;;;;;7.65;2.65;;;;;;;;;;5026489;28;20049;-69
2023/04/15 01:36:02;;;;;;;7.32;2.70;;;;;;;;;;5031830;28;20064;-70
2023/04/15 01:38:29;;;;;;;5.10;2.40;;;;;;;;;;5023326;28;20053;-70
2023/04/15 01:40:56;;;;;;;4.68;2.35;;;;;;;;;;5017580;28;20077;-69
2023/04/15 01:43:24;;;;;;;5.90;2.17;;;;;;;;;;5006355;28;20180;-71
2023/04/15 01:45:51;;;;;;;5.03;2.40;;;;;;;;;;5024729;28;20063;-71
2023/04/15 01:48:17;;;;;;;6.28;2.55;;;;;;;;;;5033326;28;20061;-70
2023/04/15 01:50:45;;;;;;;4.60;2.42;;;;;;;;;;5017117;28;20069;-71
2023/04/15 01:53:12;;;;;;;6.40;1.92;;;;;;;;;;5015059;28;20147;-71
2023/04/15 01:55:39;;;;;;;4.57;2.30;;;;;;;;;;5030166;28;20049;-69
2023/04/15 01:58:05;;;;;;;5.22;2.38;;;;;;;;;;5033212;28;20124;-71
2023/04/15 02:00:34;;;;;;;4.78;2.30;;;;;;;;;;5032345;28;20172;-70
2023/04/15 02:03:01;;;;;;;6.85;2.58;;;;;;;;;;5017669;28;20084;-71
2023/04/15 02:05:28;;;;;;;4.88;2.60;;;;;;;;;;5012964;28;20064;-71
2023/04/15 02:07:54;;;;;;;4.90;2.20;;;;;;;;;;5056310;28;20056;-71
2023/04/15 02:10:22;;;;;;;5.35;2.35;;;;;;;;;;5020239;28;20061;-70
2023/04/15 02:12:49;;;;;;;5.05;2.50;;;;;;;;;;5019200;28;20064;-70
2023/04/15 02:15:15;;;;;;;5.47;2.40;;;;;;;;;;5030194;28;20128;-70
2023/04/15 02:17:44;;;;;;;5.40;2.42;;;;;;;;;;5036508;28;20059;-71
2023/04/15 02:20:11;;;;;;;5.35;2.15;;;;;;;;;;5027071;28;20148;-70
2023/04/15 02:22:38;;;;;;;6.70;2.33;;;;;;;;;;5015320;28;20057;-71
2023/04/15 02:25:05;;;;;;;5.75;2.50;;;;;;;;;;5015818;28;20053;-69
2023/04/15 02:27:32;;;;;;;5.10;2.25;;;;;;;;;;5016546;28;20140;-69
2023/04/15 02:30:00;;;;;;;5.30;2.65;;;;;;;;;;5018144;28;20052;-70
2023/04/15 02:32:27;;;;;;;6.65;3.00;;;;;;;;;;5036394;28;20148;-69
2023/04/15 02:34:56;;;;;;;5.80;2.38;;;;;;;;;;5027580;28;20098;-70
2023/04/15 02:37:23;;;;;;;8.75;2.65;;;;;;;;;;5035404;28;20052;-70
2023/04/15 02:39:50;;;;;;;4.95;2.35;;;;;;;;;;5032685;28;20056;-71
2023/04/15 02:42:17;;;;;;;5.28;2.42;;;;;;;;;;5036003;28;20065;-70
2023/04/15 02:44:44;;;;;;;6.55;2.80;;;;;;;;;;5027293;28;20053;-70
2023/04/15 02:47:10;;;;;;;4.88;2.22;;;;;;;;;;5013758;28;20053;-70
2023/04/15 02:49:37;;;;;;;6.20;2.70;;;;;;;;;;5015339;28;20157;-68
2023/04/15 02:52:06;;;;;;;4.93;2.42;;;;;;;;;;5017361;28;20057;-69
2023/04/15 02:54:33;;;;;;;6.78;2.72;;;;;;;;;;5013530;28;20057;-69
2023/04/15 02:57:05;;;;;;;8.80;2.83;;;;;;;;;;5013176;28;20114;-71
2023/04/15 02:59:32;;;;;;;5.82;2.58;;;;;;;;;;5018947;28;20072;-70
2023/04/15 03:01:59;;;;;;;6.93;2.53;;;;;;;;;;5013520;28;20053;-71
2023/04/15 03:04:28;;;;;;;7.40;2.88;;;;;;;;;;5013209;28;20148;-69
2023/04/15 03:06:55;;;;;;;6.07;3.00;;;;;;;;;;5019219;28;20152;-70
2023/04/15 03:09:24;;;;;;;6.43;2.60;;;;;;;;;;5042616;28;20048;-71
2023/04/15 03:11:52;;;;;;;5.38;2.83;;;;;;;;;;5064672;28;20049;-69
2023/04/15 03:14:19;;;;;;;6.13;2.75;;;;;;;;;;5033734;28;20056;-69
2023/04/15 03:16:45;;;;;;;6.10;2.67;;;;;;;;;;5024519;28;20046;-71
2023/04/15 03:19:12;;;;;;;6.28;2.70;;;;;;;;;;5017379;28;20168;-69
2023/04/15 03:21:39;;;;;;;5.05;2.72;;;;;;;;;;5016465;28;20070;-70
2023/04/15 03:24:06;;;;;;;6.15;2.58;;;;;;;;;;5031261;28;20053;-69
2023/04/15 03:26:35;;;;;;;5.88;2.70;;;;;;;;;;5029755;28;20061;-71
2023/04/15 03:29:02;;;;;;;5.80;2.78;;;;;;;;;;5033434;28;20056;-70
2023/04/15 03:31:29;;;;;;;7.93;2.58;;;;;;;;;;5035455;28;20076;-69
2023/04/15 03:33:55;;;;;;;6.35;2.58;;;;;;;;;;5022739;28;20065;-70
2023/04/15 03:36:22;;;;;;;9.50;3.20;;;;;;;;;;5035294;28;20095;-69
2023/04/15 03:38:49;;;;;;;5.43;2.58;;;;;;;;;;5012481;28;20286;-69
2023/04/15 03:41:16;;;;;;;7.90;3.00;;;;;;;;;;5015526;28;20057;-69
2023/04/15 03:43:44;;;;;;;6.07;2.75;;;;;;;;;;5012077;28;20058;-71
2023/04/15 03:46:11;;;;;;;5.57;2.70;;;;;;;;;;5011553;28;20077;-70
2023/04/15 03:48:38;;;;;;;7.93;3.28;;;;;;;;;;5008598;28;20057;-71
2023/04/15 03:51:04;;;;;;;7.15;2.95;;;;;;;;;;5034873;28;20118;-70
2023/04/15 03:53:31;;;;;;;9.52;3.15;;;;;;;;;;5023174;28;20152;-70
2023/04/15 03:55:58;;;;;;;7.43;3.10;;;;;;;;;;5011731;28;20092;-71
2023/04/15 03:58:24;;;;;;;6.57;2.80;;;;;;;;;;5011633;28;20049;-68
2023/04/15 04:00:53;;;;;;;4.45;2.67;;;;;;;;;;5007036;28;20107;-70
2023/04/15 04:03:20;;;;;;;5.75;2.85;;;;;;;;;;5015737;28;20067;-69
2023/04/15 04:05:47;;;;;;;7.53;3.30;;;;;;;;;;5035857;28;20060;-69
2023/04/15 04:08:15;;;;;;;7.30;3.35;;;;;;;;;;5034143;28;20206;-70
2023/04/15 04:10:42;;;;;;;8.10;3.20;;;;;;;;;;5027292;28;20057;-69
2023/04/15 04:13:08;;;;;;;7.60;3.20;;;;;;;;;;5035355;28;20080;-71
2023/04/15 04:15:35;;;;;;;6.05;2.78;;;;;;;;;;5026215;28;20061;-70
2023/04/15 04:18:03;;;;;;;8.85;3.30;;;;;;;;;;5034764;28;20057;-70
2023/04/15 04:20:33;;;;;;;7.22;3.03;;;;;;;;;;5013508;28;20076;-71
2023/04/15 04:22:59;;;;;;;8.98;3.08;;;;;;;;;;5008975;28;20056;-71
2023/04/15 04:25:27;;;;;;;8.10;3.60;;;;;;;;;;5008409;28;20053;-69
2023/04/15 04:27:53;;;;;;;7.45;3.03;;;;;;;;;;5014992;28;20053;-69
2023/04/15 04:30:21;;;;;;;7.75;3.22;;;;;;;;;;5018792;28;20053;-70
2023/04/15 04:32:48;;;;;;;7.65;3.30;;;;;;;;;;5019485;28;20056;-71
2023/04/15 04:35:16;;;;;;;7.47;2.83;;;;;;;;;;5017502;28;20084;-69
2023/04/15 04:37:43;;;;;;;9.05;3.45;;;;;;;;;;5014790;28;20121;-71
2023/04/15 04:40:13;;;;;;;10.32;3.45;;;;;;;;;;5011302;28;20129;-69
2023/04/15 04:42:40;;;;;;;8.43;3.60;;;;;;;;;;5000401;28;20057;-70
2023/04/15 04:45:07;;;;;;;8.40;3.67;;;;;;;;;;5013573;28;20053;-71
2023/04/15 04:47:34;;;;;;;8.23;3.17;;;;;;;;;;5014770;28;20125;-71
2023/04/15 04:50:05;;;;;;;8.30;3.38;;;;;;;;;;5006748;28;20056;-70
2023/04/15 04:52:40;;;;;;;8.15;3.58;;;;;;;;;;5047185;28;20054;-71
2023/04/15 04:55:08;;;;;;;8.27;3.53;;;;;;;;;;5037248;28;20124;-70
2023/04/15 04:57:39;;;;;;;9.95;4.07;;;;;;;;;;5055821;28;20060;-69
2023/04/15 05:00:09;;;;;;;9.18;3.55;;;;;;;;;;5032739;28;20136;-71
2023/04/15 05:02:36;;;;;;;7.43;3.20;;;;;;;;;;5022602;28;20065;-70
2023/04/15 05:05:03;;;;;;;7.55;3.65;;;;;;;;;;5020098;28;20064;-70
2023/04/15 05:07:30;;;;;;;9.60;3.10;;;;;;;;;;5011858;28;20053;-70
2023/04/15 05:09:58;;;;;;;8.80;3.63;;;;;;;;;;5042143;28;20056;-69
2023/04/15 05:12:25;;;;;;;6.90;3.28;;;;;;;;;;5033516;28;20072;-69
2023/04/15 05:14:52;;;;;;;8.50;3.78;;;;;;;;;;5042218;28;20055;-70
2023/04/15 05:17:19;;;;;;;8.13;3.55;;;;;;;;;;5049960;28;20084;-69
2023/04/15 05:19:49;;;;;;;9.93;3.80;;;;;;;;;;5036514;28;20065;-71
2023/04/15 05:22:16;;;;;;;6.85;3.33;;;;;;;;;;5055281;28;20098;-70
2023/04/15 05:24:42;;;;;;;9.70;4.20;;;;;;;;;;5030624;28;20076;-71
2023/04/15 05:27:11;;;;;;;7.72;3.58;;;;;;;;;;5030684;28;20181;-70
2023/04/15 05:29:37;;;;;;;7.70;3.35;;;;;;;;;;5018982;28;20053;-71
2023/04/15 05:32:06;;;;;;;7.38;3.30;;;;;;;;;;5031492;28;20134;-71
2023/04/15 05:34:35;;;;;;;6.80;3.40;;;;;;;;;;5012131;28;20056;-71
2023/04/15 05:37:04;;;;;;;6.60;3.25;;;;;;;;;;5032693;28;20068;-69
2023/04/15 05:39:31;;;;;;;9.93;3.95;;;;;;;;;;5037163;28;20048;-68
2023/04/15 05:42:01;;;;;;;9.88;3.25;;;;;;;;;;5034252;28;20080;-70
2023/04/15 05:44:32;;;;;;;7.57;3.70;;;;;;;;;;5012874;28;20059;-69
2023/04/15 05:46:59;;;;;;;8.70;3.70;;;;;;;;;;5020382;28;20059;-71
2023/04/15 05:49:26;;;;;;;8.18;3.63;;;;;;;;;;5015062;28;20061;-69
2023/04/15 05:51:55;;;;;;;7.60;3.80;;;;;;;;;;5010597;28;20065;-71
2023/04/15 05:54:26;;;;;;;8.82;3.45;;;;;;;;;;5026149;28;20144;-69
2023/04/15 05:56:53;;;;;;;8.07;3.17;;;;;;;;;;5046005;28;20053;-71
2023/04/15 05:59:21;;;;;;;7.60;3.75;;;;;;;;;;5041808;28;20135;-69
2023/04/15 06:01:52;;;;;;;8.57;3.60;;;;;;;;;;5029994;28;20110;-69
2023/04/15 06:04:19;;;;;;;7.97;3.72;;;;;;;;;;5024213;28;20070;-70
2023/04/15 06:06:47;;;;;;;8.45;3.60;;;;;;;;;;5007026;28;20050;-70
2023/04/15 06:09:14;;;;;;;8.55;3.90;;;;;;;;;;5042285;28;20064;-71
2023/04/15 06:11:41;;;;;;;8.05;3.60;;;;;;;;;;5050180;28;20060;-69
2023/04/15 06:14:08;;;;;;;8.10;3.67;;;;;;;;;;5035300;28;20056;-70
2023/04/15 06:16:44;;;;;;;7.13;3.53;;;;;;;;;;5049698;28;20064;-70
2023/04/15 06:19:13;;;;;;;7.95;3.63;;;;;;;;;;5027260;28;20057;-70
2023/04/15 06:21:40;;;;;;;9.80;4.18;;;;;;;;;;5019642;28;20052;-71
2023/04/15 06:24:07;;;;;;;8.10;3.85;;;;;;;;;;5006235;28;20060;-71
2023/04/15 06:26:35;;;;;;;8.32;3.85;;;;;;;;;;5019898;28;20156;-69
2023/04/15 06:29:06;;;;;;;9.48;4.18;;;;;;;;;;5029152;28;20049;-70
2023/04/15 06:31:32;;;;;;;9.70;4.10;;;;;;;;;;5019716;28;20092;-69
2023/04/15 06:33:59;;;;;;;7.55;3.95;;;;;;;;;;5013872;28;20045;-70
2023/04/15 06:36:33;;;;;;;7.15;3.67;;;;;;;;;;5057389;28;20144;-70
2023/04/15 06:39:00;;;;;;;9.32;3.88;;;;;;;;;;5027850;28;20052;-69
2023/04/15 06:41:27;;;;;;;8.60;3.60;;;;;;;;;;5036324;28;20057;-69
2023/04/15 06:43:56;;;;;;;7.25;3.40;;;;;;;;;;5035183;28;20135;-70
2023/04/15 06:46:24;;;;;;;7.57;3.65;;;;;;;;;;5015717;28;20053;-70
2023/04/15 06:48:51;;;;;;;8.13;3.75;;;;;;;;;;5010551;28;20056;-70
2023/04/15 06:51:18;;;;;;;9.18;3.80;;;;;;;;;;5022800;28;20049;-71
2023/04/15 06:53:46;;;;;;;8.50;3.92;;;;;;;;;;5036854;28;20088;-70
2023/04/15 06:56:12;;;;;;;11.25;4.13;;;;;;;;;;5005485;28;20060;-71
2023/04/15 06:58:39;;;;;;;8.50;3.92;;;;;;;;;;5023511;28;20060;-70
2023/04/15 07:01:08;;;;;;;10.35;4.03;;;;;;;;;;5028090;28;20126;-69
2023/04/15 07:03:38;;;;;;;10.82;4.40;;;;;;;;;;5056485;28;20119;-71
2023/04/15 07:06:06;;;;;;;8.25;3.67;;;;;;;;;;5032220;28;20045;-70
2023/04/15 07:08:37;;;;;;;8.05;3.80;;;;;;;;;;5027865;28;20092;-70
2023/04/15 07:11:11;;;;;;;9.35;3.90;;;;;;;;;;5049724;28;20074;-70
2023/04/15 07:13:38;;;;;;;8.38;3.55;;;;;;;;;;5049845;28;20139;-70
2023/04/15 07:16:05;;;;;;;8.63;3.70;;;;;;;;;;5015860;28;20044;-69
2023/04/15 07:18:32;;;;;;;9.30;4.05;;;;;;;;;;5051809;28;20053;-71
2023/04/15 07:20:58;;;;;;;8.50;4.25;;;;;;;;;;5030280;28;20076;-69
2023/04/15 07:23:25;;;;;;;11.65;4.25;;;;;;;;;;5053235;28;20155;-69
2023/04/15 07:25:54;;;;;;;9.23;3.92;;;;;;;;;;5029153;28;20254;-69
2023/04/15 07:28:25;;;;;;;9.93;4.05;;;;;;;;;;5035756;28;20049;-69
2023/04/15 07:30:52;;;;;;;7.78;3.70;;;;;;;;;;5020675;28;20081;-69
2023/04/15 07:33:19;;;;;;;7.90;4.03;;;;;;;;;;5035371;28;20147;-71
2023/04/15 07:35:48;;;;;;;8.80;4.15;;;;;;;;;;5031403;28;20056;-71
2023/04/15 07:38:15;;;;;;;8.68;3.88;;;;;;;;;;5031424;28;20329;-68
2023/04/15 07:40:42;;;;;;;11.60;4.13;;;;;;;;;;5024161;28;20049;-70
2023/04/15 07:43:12;;;;;;;11.20;4.00;;;;;;;;;;5051672;28;20063;-70
2023/04/15 07:45:40;;;;;;;8.70;3.67;;;;;;;;;;5019838;28;20079;-70
2023/04/15 07:48:07;;;;;;;6.85;3.50;;;;;;;;;;5034502;28;20068;-70
2023/04/15 07:50:37;;;;;;;8.95;3.35;;;;;;;;;;5026998;28;20061;-70
2023/04/15 07:53:04;;;;;;;8.25;3.30;;;;;;;;;;5028197;28;20048;-70
2023/04/15 07:55:31;;;;;;;9.93;3.30;;;;;;;;;;5003130;28;20064;-71
2023/04/15 07:57:58;;;;;;;7.57;3.22;;;;;;;;;;5038162;28;20067;-69
2023/04/15 08:00:37;;;;;;;7.88;3.40;;;;;;;;;;5031941;28;20063;-70
2023/04/15 08:03:05;;;;;;;5.70;2.85;;;;;;;;;;5030552;28;20052;-69
2023/04/15 08:05:32;;;;;;;8.63;3.42;;;;;;;;;;5012576;28;20056;-70
2023/04/15 08:07:58;;;;;;;7.13;3.58;;;;;;;;;;5032152;28;20072;-69
2023/04/15 08:10:26;;;;;;;10.00;3.60;;;;;;;;;;5032252;28;20053;-69
2023/04/15 08:12:53;;;;;;;11.48;3.63;;;;;;;;;;5025455;28;20064;-71
2023/04/15 08:15:22;;;;;;;7.43;3.30;;;;;;;;;;5031835;28;20052;-70
2023/04/15 08:17:51;;;;;;;6.78;3.40;;;;;;;;;;5031535;28;20167;-69
2023/04/15 08:20:19;;;;;;;7.07;3.28;;;;;;;;;;5005764;28;20046;-70
2023/04/15 08:22:50;;;;;;;9.40;3.38;;;;;;;;;;5008839;28;20054;-70
2023/04/15 08:25:17;;;;;;;8.25;3.40;;;;;;;;;;5002624;28;20061;-70
2023/04/15 08:27:45;;;;;;;7.95;3.40;;;;;;;;;;5030587;28;20136;-73
2023/04/15 08:30:12;;;;;;;8.30;3.53;;;;;;;;;;5051341;28;20069;-70
2023/04/15 08:32:42;;;;;;;8.05;2.95;;;;;;;;;;5033330;28;20064;-70
2023/04/15 08:35:12;;;;;;;6.40;3.10;;;;;;;;;;5016270;28;20053;-71
2023/04/15 08:37:40;;;;;;;6.85;3.03;;;;;;;;;;5019523;28;20057;-70
2023/04/15 08:40:11;;;;;;;6.72;3.00;;;;;;;;;;5022804;28;20045;-69
2023/04/15 08:42:44;;;;;;;9.27;3.35;;;;;;;;;;5017388;28;20060;-70
2023/04/15 08:45:13;;;;;;;7.07;3.25;;;;;;;;;;5028325;28;20053;-70
2023/04/15 08:47:43;;;;;;;10.45;3.30;;;;;;;;;;5030755;28;20084;-71
2023/04/15 08:50:10;;;;;;;9.15;3.85;;;;;;;;;;5026631;28;20042;-72
2023/04/15 08:52:41;;;;;;;8.57;3.75;;;;;;;;;;5015697;28;20048;-71
2023/04/15 08:55:11;;;;;;;6.82;3.30;;;;;;;;;;4993709;28;20056;-72
2023/04/15 08:57:38;;;;;;;9.18;3.22;;;;;;;;;;5039776;28;20052;-72
2023/04/15 09:00:13;;;;;;;9.43;2.97;;;;;;;;;;5011728;28;20049;-71
2023/04/15 09:02:40;;;;;;;7.95;3.20;;;;;;;;;;5016282;28;20077;-70
2023/04/15 09:05:11;;;;;;;7.85;3.20;;;;;;;;;;5007898;28;20060;-71
2023/04/15 09:07:37;;;;;;;6.05;2.88;;;;;;;;;;5040161;28;20184;-71
2023/04/15 09:10:09;;;;;;;5.75;3.03;;;;;;;;;;5051076;28;20324;-71
2023/04/15 09:12:36;;;;;;;7.10;2.90;;;;;;;;;;5025009;28;20061;-71
2023/04/15 09:15:05;;;;;;;6.90;2.92;;;;;;;;;;5028332;28;20077;-71
2023/04/15 09:17:32;;;;;;;;;;;;;;;;;;5018701;28;20134;-71
2023/04/15 09:20:07;;;;;;;7.10;2.70;;;;;;;;;;5021881;28;19924;-70
2023/04/15 09:22:34;;;;;;;6.82;3.13;;;;;;;;;;5012599;28;20076;-71
2023/04/15 09:25:04;;;;;;;7.15;2.70;;;;;;;;;;5012831;28;20057;-72
2023/04/15 09:27:36;;;;;;;6.35;2.75;;;;;;;;;;5008894;28;20152;-71
2023/04/15 09:30:08;;;;;;;6.72;2.78;;;;;;;;;;5035672;28;20060;-70
2023/04/15 09:32:35;;;;;;;6.63;2.67;;;;;;;;;;5018214;28;20057;-70
2023/04/15 09:35:14;;;;;;;5.78;2.60;;;;;;;;;;5030311;28;20053;-70
2023/04/15 09:37:41;;;;;;;;;;;;;;;;;;5020077;28;20065;-70
2023/04/15 09:40:10;;;;;;;4.43;2.38;;;;;;;;;;5011929;28;19925;-70
2023/04/15 09:42:53;;;;;;;5.68;2.95;;;;;;;;;;5020609;28;20057;-70
2023/04/15 09:45:28;;;;;;;6.50;2.50;;;;;;;;;;5033444;28;20061;-70
2023/04/15 09:47:56;;;;;;;5.20;2.45;;;;;;;;;;5025872;28;20131;-70
2023/04/15 09:50:27;;;;;;;8.25;2.95;;;;;;;;;;5031780;28;20057;-70
2023/04/15 09:52:56;;;;;;;10.80;2.45;;;;;;;;;;5018504;28;20049;-74
2023/04/15 09:55:25;;;;;;;4.40;2.28;;;;;;;;;;5017699;28;20092;-68
2023/04/15 09:57:53;;;;;;;4.95;1.50;;;;;;;;;;5019070;28;20139;-69
2023/04/15 10:00:20;;;;;;;3.60;1.58;;;;;;;;;;5021144;28;20061;-70
2023/04/15 10:02:49;;;;;;;4.03;1.48;;;;;;;;;;5006609;28;20060;-70
2023/04/15 10:05:16;;;;;;;2.80;1.38;;;;;;;;;;5026866;28;20064;-70
2023/04/15 10:07:46;;;;;;;4.07;1.98;;;;;;;;;;5031967;28;20057;-72
2023/04/15 10:10:15;;;;;;;7.18;1.83;;;;;;;;;;5071520;28;20061;-69
2023/04/15 10:12:48;;;;;;;4.47;1.60;;;;;;;;;;5032474;28;20049;-69
2023/04/15 10:15:18;;;;;;;4.38;1.60;;;;;;;;;;5024299;28;20065;-70
2023/04/15 10:17:45;;;;;;;6.10;1.88;;;;;;;;;;5022449;28;20065;-69
2023/04/15 10:20:13;;;;;;;2.72;1.30;;;;;;;;;;5036494;28;20056;-70
2023/04/15 10:22:43;;;;;;;4.53;1.95;;;;;;;;;;5020562;28;20148;-72
2023/04/15 10:25:12;;;;;;;3.42;1.50;;;;;;;;;;5005159;28;20104;-71
2023/04/15 10:27:39;;;;;;;;;;;;;;;;;;5022405;28;20049;-74
2023/04/15 10:30:10;;;;;;;3.80;1.70;;;;;;;;;;5032218;28;19924;-70
2023/04/15 10:32:39;;;;;;;3.08;1.48;;;;;;;;;;5044311;28;20054;-70
2023/04/15 10:35:07;;;;;;;3.05;1.63;;;;;;;;;;4998636;28;20057;-73
2023/04/15 10:37:35;;;;;;;8.35;1.90;;;;;;;;;;5017924;28;20049;-69
2023/04/15 10:40:22;;;;;;;5.00;1.83;;;;;;;;;;5026674;28;20053;-70
2023/04/15 10:42:49;;;;;;;4.78;1.80;;;;;;;;;;5008671;28;20311;-69
2023/04/15 10:45:16;;;;;;;5.80;1.98;;;;;;;;;;5003031;28;20056;-69
2023/04/15 10:47:45;;;;;;;7.93;2.00;;;;;;;;;;5024778;28;20064;-69
2023/04/15 10:50:11;;;;;;;;;;;;;;;;;;5005523;28;20049;-69
2023/04/15 10:52:41;;;;;;;4.22;1.75;;;;;;;;;;4997786;28;19928;-69
2023/04/15 10:55:13;;;;;;;6.53;1.92;;;;;;;;;;4991486;28;20113;-70
2023/04/15 10:57:41;;;;;;;4.63;1.63;;;;;;;;;;5019743;28;20049;-70
2023/04/15 11:00:11;;;;;;;3.75;1.75;;;;;;;;;;5019163;28;20084;-75
2023/04/15 11:02:41;;;;;;;5.13;2.03;;;;;;;;;;5008697;28;20060;-70
2023/04/15 11:05:10;;;;;;;6.15;2.10;;;;;;;;;;5010457;28;20112;-69
2023/04/15 11:07:37;;;;;;;5.97;2.10;;;;;;;;;;5037089;28;20053;-69
2023/04/15 11:10:35;;;;;;;4.07;2.13;;;;;;;;;;5030567;28;20080;-69
2023/04/15 11:13:03;;;;;;;8.27;2.33;;;;;;;;;;5016355;28;20164;-69
2023/04/15 11:15:30;;;;;;;5.27;2.00;;;;;;;;;;5003365;28;20142;-69
2023/04/15 11:17:57;;;;;;;4.65;1.98;;;;;;;;;;5019779;28;20049;-69
2023/04/15 11:20:26;;;;;;;7.40;1.90;;;;;;;;;;5023024;28;20041;-71
2023/04/15 11:22:53;;;;;;;5.95;2.53;;;;;;;;;;5018262;28;20183;-71
2023/04/15 11:25:26;;;;;;;5.47;2.20;;;;;;;;;;5012089;28;20061;-75
2023/04/15 11:27:54;;;;;;;6.78;2.20;;;;;;;;;;5020567;28;20061;-71
2023/04/15 11:30:24;;;;;;;5.70;2.00;;;;;;;;;;5010283;28;20057;-69
2023/04/15 11:32:54;;;;;;;8.30;2.50;;;;;;;;;;5002116;28;20045;-70
2023/04/15 11:35:23;;;;;;;5.47;2.10;;;;;;;;;;5021338;28;20068;-72
2023/04/15 11:37:53;;;;;;;8.65;2.22;;;;;;;;;;5012047;28;20141;-72
2023/04/15 11:40:23;;;;;;;7.68;2.40;;;;;;;;;;5008354;28;20066;-72
2023/04/15 11:43:04;;;;;;;5.50;2.08;;;;;;;;;;4993482;28;20185;-70
2023/04/15 11:45:39;;;;;;;4.75;2.15;;;;;;;;;;4963715;28;20050;-71
2023/04/15 11:48:07;;;;;;;10.95;2.63;;;;;;;;;;5007157;28;20052;-71
2023/04/15 11:50:39;;;;;;;3.83;2.00;;;;;;;;;;5014421;28;20061;-71
2023/04/15 11:53:10;;;;;;;10.98;2.00;;;;;;;;;;5019068;28;20044;-71
2023/04/15 11:55:45;;;;;;;5.10;1.80;;;;;;;;;;5002438;28;20057;-72
2023/04/15 11:58:12;;;;;;;7.13;1.98;;;;;;;;;;5016780;28;20060;-71
2023/04/15 12:00:40;;;;;;;5.30;2.17;;;;;;;;;;5017044;28;20134;-71
2023/04/15 12:03:27;;;;;;;5.32;2.20;;;;;;;;;;5014496;28;20141;-70
2023/04/15 12:06:11;;;;;;;6.07;1.80;;;;;;;;;;5018388;28;20057;-69
2023/04/15 12:08:57;;;;;;;4.97;2.17;;;;;;;;;;5025760;28;20127;-70
2023/04/15 12:11:28;;;;;;;4.25;1.77;;;;;;;;;;5056982;28;20059;-71
2023/04/15 12:13:55;;;;;;;5.50;1.95;;;;;;;;;;5016097;28;20063;-70
2023/04/15 12:16:32;;;;;;;3.65;1.85;;;;;;;;;;5018808;28;20083;-72
2023/04/15 12:18:59;;;;;;;4.90;2.13;;;;;;;;;;5014250;28;20057;-72
2023/04/15 12:21:28;;;;;;;3.75;1.75;;;;;;;;;;5005698;28;20107;-70
2023/04/15 12:23:54;;;;;;;;;;;;;;;;;;5033812;28;20060;-71
2023/04/15 12:26:32;;;;;;;5.15;1.80;;;;;;;;;;5018502;28;19960;-70
2023/04/15 12:29:01;;;;;;;3.75;1.90;;;;;;;;;;5016591;28;20135;-71
2023/04/15 12:31:30;;;;;;;4.30;1.90;;;;;;;;;;5016864;28;20083;-71
2023/04/15 12:34:00;;;;;;;7.05;2.03;;;;;;;;;;5020344;28;20155;-70
2023/04/15 12:36:37;;;;;;;;;;;;;;;;;;;;;
2023/04/15 12:39:06;;;;;;;5.75;1.83;;;;;;;;;;5015805;28;20084;-70
2023/04/15 12:41:34;;;;;;;7.22;2.25;;;;;;;;;;5011260;28;20164;-71
2023/04/15 12:44:01;;;;;;;3.15;1.65;;;;;;;;;;5025965;28;20049;-71
2023/04/15 12:46:28;;;;;;;6.10;1.88;;;;;;;;;;5020071;28;20052;-70
2023/04/15 12:49:03;;;;;;;3.95;1.67;;;;;;;;;;5035559;28;20063;-70
2023/04/15 12:51:31;;;;;;;3.20;1.50;;;;;;;;;;5028115;28;20234;-71
2023/04/15 12:54:01;;;;;;;3.40;1.70;;;;;;;;;;5042896;28;20071;-71
2023/04/15 12:56:34;;;;;;;5.57;2.22;;;;;;;;;;5017421;28;20056;-75
2023/04/15 12:59:09;;;;;;;7.03;1.92;;;;;;;;;;5030434;28;20065;-73
2023/04/15 13:01:46;;;;;;;4.32;1.75;;;;;;;;;;5029929;28;20108;-74
2023/04/15 13:04:29;;;;;;;7.90;1.92;;;;;;;;;;5012231;28;20056;-76
2023/04/15 13:07:15;;;;;;;6.05;1.73;;;;;;;;;;5027758;28;20139;-70
2023/04/15 13:09:46;;;;;;;8.90;1.55;;;;;;;;;;5052426;28;20049;-70
2023/04/15 13:12:16;;;;;;;3.30;1.43;;;;;;;;;;5056494;28;20064;-71
2023/04/15 13:14:44;;;;;;;6.07;1.40;;;;;;;;;;5021493;28;20319;-71
2023/04/15 13:17:11;;;;;;;7.25;1.40;;;;;;;;;;5011517;28;20052;-71
2023/04/15 13:19:41;;;;;;;10.27;1.60;;;;;;;;;;5026005;28;20048;-70
2023/04/15 13:22:08;;;;;;;8.48;1.60;;;;;;;;;;5041225;28;20049;-71
2023/04/15 13:24:35;;;;;;;6.75;1.50;;;;;;;;;;5027185;28;20061;-71
2023/04/15 13:27:07;;;;;;;9.18;1.45;;;;;;;;;;5035015;28;20053;-70
2023/04/15 13:29:44;;;;;;;2.53;1.20;;;;;;;;;;5029909;28;20130;-79
2023/04/15 13:32:12;;;;;;;4.63;1.58;;;;;;;;;;5017384;28;20053;-70
2023/04/15 13:34:39;;;;;;;7.32;1.40;;;;;;;;;;5000103;28;20168;-72
2023/04/15 13:37:06;;;;;;;7.65;1.30;;;;;;;;;;5035086;28;20137;-71
2023/04/15 13:39:33;;;;;;;5.97;1.05;;;;;;;;;;5028125;28;20053;-71
2023/04/15 13:42:01;;;;;;;4.40;1.58;;;;;;;;;;5022506;28;20053;-72
2023/04/15 13:44:31;;;;;;;10.95;1.35;;;;;;;;;;5019988;28;20056;-72
2023/04/15 13:46:58;;;;;;;3.58;1.10;;;;;;;;;;5021431;28;20053;-70
2023/04/15 13:49:26;;;;;;;4.50;1.45;;;;;;;;;;5020446;28;20053;-71
2023/04/15 13:51:52;;;;;;;2.88;1.15;;;;;;;;;;5017361;28;20052;-72
2023/04/15 13:54:25;;;;;;;2.80;1.08;;;;;;;;;;5018489;28;20052;-72
2023/04/15 13:56:52;;;;;;;5.05;1.23;;;;;;;;;;5005729;28;20055;-71
2023/04/15 13:59:19;;;;;;;2.88;1.20;;;;;;;;;;5040686;28;20060;-71
2023/04/15 14:01:48;;;;;;;2.65;1.00;;;;;;;;;;5033843;28;20051;-71
2023/04/15 14:04:19;;;;;;;1.98;1.10;;;;;;;;;;5017417;28;20053;-71
2023/04/15 14:06:50;;;;;;;2.20;1.00;;;;;;;;;;5017586;28;20045;-72
2023/04/15 14:09:21;;;;;;;2.22;0.90;;;;;;;;;;5039303;28;20155;-71
2023/04/15 14:12:06;;;;;;;3.45;1.00;;;;;;;;;;5068871;28;20048;-71
2023/04/15 14:14:33;;;;;;;2.42;0.93;;;;;;;;;;4981585;28;20051;-72
2023/04/15 14:17:06;;;;;;;2.40;0.95;;;;;;;;;;4975418;28;20049;-71
2023/04/15 14:19:33;;;;;;;2.83;1.38;;;;;;;;;;5023839;28;20091;-71
2023/04/15 14:22:09;;;;;;;2.65;1.30;;;;;;;;;;5016601;28;20135;-71
2023/04/15 14:24:42;;;;;;;3.00;1.30;;;;;;;;;;5004461;28;20068;-71
2023/04/15 14:27:12;;;;;;;6.45;1.13;;;;;;;;;;5022760;28;20060;-71
2023/04/15 14:29:48;;;;;;;1.88;0.90;;;;;;;;;;5030992;28;20141;-71
2023/04/15 14:32:16;;;;;;;2.53;1.05;;;;;;;;;;5036966;28;20083;-70
2023/04/15 14:34:49;;;;;;;2.00;0.98;;;;;;;;;;5008697;28;20283;-70
2023/04/15 14:37:22;;;;;;;3.97;1.20;;;;;;;;;;5021148;28;20053;-70
2023/04/15 14:39:50;;;;;;;3.75;1.00;;;;;;;;;;5021223;28;20174;-70
2023/04/15 14:42:20;;;;;;;2.88;1.05;;;;;;;;;;5021923;28;20075;-70
2023/04/15 14:47:30;;;;;;;2.38;0.90;;;;;;;;;;5014075;28;20147;-70
2023/04/15 14:49:59;;;;;;;4.20;1.40;;;;;;;;;;5034962;28;20055;-70
2023/04/15 14:52:31;;;;;;;3.58;1.17;;;;;;;;;;5060772;28;20064;-69
2023/04/15 14:54:58;;;;;;;2.22;1.00;;;;;;;;;;5025914;28;20990;-69
2023/04/15 14:57:28;;;;;;;2.20;1.05;;;;;;;;;;4984215;28;20130;-70